Time;durP1;ratioP1;P1;durP2;ratioP2;P2;SDS_P1;SDS_P2;PMS_P1;PMS_P2;Temp;Humidity;BMP_temperature;BMP_pressure;BME280_temperature;BME280_humidity;BME280_pressure;Samples;Min_cycle;Max_cycle;Signal;HPM_P1;HPM_P2
2021/04/17 00:00:55;;;;;;;23.57;12.60;;;1.80;99.90;;;;;;4176363;28;20895;-61
2021/04/17 00:02:57;;;;;;;29.07;15.67;;;1.80;99.90;;;;;;4175739;28;20270;-61
2021/04/17 00:04:58;;;;;;;31.47;15.30;;;1.80;99.90;;;;;;4176952;28;20327;-63
2021/04/17 00:06:59;;;;;;;25.00;14.83;;;1.80;99.90;;;;;;4175534;28;20296;-62
2021/04/17 00:09:06;;;;;;;27.17;14.87;;;1.80;99.90;;;;;;4158779;28;20309;-61
2021/04/17 00:11:08;;;;;;;26.43;13.93;;;1.80;99.90;;;;;;4175654;28;20258;-61
2021/04/17 00:13:09;;;;;;;26.87;13.57;;;1.70;99.90;;;;;;4176509;28;20294;-61
2021/04/17 00:15:11;;;;;;;25.90;13.20;;;1.70;99.90;;;;;;4174523;28;20331;-62
2021/04/17 00:17:13;;;;;;;23.97;13.40;;;1.70;99.90;;;;;;4175441;28;20324;-61
2021/04/17 00:19:15;;;;;;;21.47;12.33;;;1.70;99.90;;;;;;4175695;28;20262;-61
2021/04/17 00:21:18;;;;;;;24.67;12.70;;;1.60;99.90;;;;;;4175278;28;20282;-65
2021/04/17 00:23:20;;;;;;;21.73;11.47;;;1.60;99.90;;;;;;4175799;28;20712;-62
2021/04/17 00:25:21;;;;;;;19.80;11.53;;;1.60;99.90;;;;;;4175662;28;21003;-67
2021/04/17 00:27:22;;;;;;;21.97;11.80;;;1.60;99.90;;;;;;4157928;28;20333;-62
2021/04/17 00:29:24;;;;;;;20.63;11.93;;;1.60;99.90;;;;;;4175308;28;20304;-63
2021/04/17 00:31:25;;;;;;;21.10;11.90;;;1.50;99.90;;;;;;4176406;28;20665;-61
2021/04/17 00:33:26;;;;;;;22.40;12.93;;;1.40;99.90;;;;;;4174496;28;20343;-64
2021/04/17 00:35:27;;;;;;;21.83;11.33;;;1.40;99.90;;;;;;4176164;28;20262;-60
2021/04/17 00:37:28;;;;;;;22.47;11.00;;;1.40;99.90;;;;;;4174729;28;20308;-60
2021/04/17 00:39:29;;;;;;;21.27;12.20;;;1.40;99.90;;;;;;4176189;28;20688;-61
2021/04/17 00:41:31;;;;;;;23.10;11.97;;;1.30;99.90;;;;;;4175010;28;20266;-60
2021/04/17 00:43:32;;;;;;;20.77;11.37;;;1.30;99.90;;;;;;4175927;28;20274;-61
2021/04/17 00:45:34;;;;;;;23.03;11.90;;;1.20;99.90;;;;;;4174330;28;20254;-60
2021/04/17 00:47:35;;;;;;;26.93;12.37;;;1.20;99.90;;;;;;4175421;28;20615;-60
2021/04/17 00:49:36;;;;;;;22.63;11.77;;;1.20;99.90;;;;;;4175176;28;20270;-61
2021/04/17 00:51:38;;;;;;;22.67;11.93;;;1.10;99.90;;;;;;4174932;28;20682;-60
2021/04/17 00:53:41;;;;;;;24.37;12.90;;;1.10;99.90;;;;;;4175032;28;20373;-62
2021/04/17 00:55:42;;;;;;;22.20;12.23;;;1.10;99.90;;;;;;4174973;28;20270;-62
2021/04/17 00:57:43;;;;;;;29.97;13.63;;;1.10;99.90;;;;;;4174988;28;20328;-61
2021/04/17 00:59:45;;;;;;;24.40;13.77;;;1.10;99.90;;;;;;4174180;28;20347;-63
2021/04/17 01:01:47;;;;;;;28.00;13.63;;;1.00;99.90;;;;;;4175792;28;21209;-61
2021/04/17 01:04:09;;;;;;;23.50;11.77;;;1.00;99.90;;;;;;4173988;28;20278;-62
2021/04/17 01:06:20;;;;;;;27.10;12.70;;;1.00;99.90;;;;;;4175855;28;20262;-61
2021/04/17 01:08:30;;;;;;;22.33;12.60;;;1.00;99.90;;;;;;4174561;28;20324;-66
2021/04/17 01:10:46;;;;;;;26.55;13.15;;;0.90;99.90;;;;;;4157381;28;20040;-67
2021/04/17 01:12:51;;;;;;;25.63;12.63;;;0.90;99.90;;;;;;4174537;28;20103;-68
2021/04/17 01:14:54;;;;;;;24.80;13.20;;;0.80;99.90;;;;;;4175576;28;20357;-62
2021/04/17 01:16:57;;;;;;;25.27;12.17;;;0.90;99.90;;;;;;4174449;28;20266;-66
2021/04/17 01:18:59;;;;;;;21.47;11.57;;;0.80;99.90;;;;;;4177860;28;20328;-68
2021/04/17 01:21:01;;;;;;;23.87;11.83;;;0.90;99.90;;;;;;4175398;28;20278;-61
2021/04/17 01:23:13;;;;;;;22.23;12.40;;;0.90;99.90;;;;;;4175779;28;20698;-66
2021/04/17 01:25:18;;;;;;;22.63;11.93;;;0.90;99.90;;;;;;4174538;28;20270;-61
2021/04/17 01:27:19;;;;;;;24.63;12.67;;;0.90;99.90;;;;;;4175520;28;20274;-61
2021/04/17 01:29:21;;;;;;;23.60;12.27;;;0.90;99.90;;;;;;4173746;28;20282;-62
2021/04/17 01:31:32;;;;;;;21.47;11.53;;;0.90;99.90;;;;;;4175495;28;20804;-61
2021/04/17 01:33:36;;;;;;;23.97;13.73;;;0.90;99.90;;;;;;4173761;28;20336;-62
2021/04/17 01:35:37;;;;;;;22.60;12.03;;;0.80;99.90;;;;;;4175175;28;20344;-61
2021/04/17 01:37:50;;;;;;;26.63;12.83;;;0.90;99.90;;;;;;4173729;28;20689;-61
2021/04/17 01:39:52;;;;;;;24.77;13.73;;;0.90;99.90;;;;;;4174927;28;20320;-65
2021/04/17 01:42:03;;;;;;;23.03;12.60;;;0.90;99.90;;;;;;4174358;28;20274;-62
2021/04/17 01:44:10;;;;;;;21.50;11.73;;;0.80;99.90;;;;;;4175178;28;20262;-66
2021/04/17 01:46:20;;;;;;;21.60;11.97;;;0.90;99.90;;;;;;4172752;28;20270;-62
2021/04/17 01:48:22;;;;;;;21.50;11.75;;;0.80;99.90;;;;;;4175088;28;20296;-65
2021/04/17 01:50:25;;;;;;;26.73;12.83;;;0.80;99.90;;;;;;4173933;28;20033;-61
2021/04/17 01:52:27;;;;;;;24.77;12.57;;;0.80;99.90;;;;;;4174725;28;20298;-65
2021/04/17 01:54:33;;;;;;;25.60;13.43;;;0.80;99.90;;;;;;4173206;28;20343;-62
2021/04/17 01:56:36;;;;;;;26.73;13.57;;;0.70;99.90;;;;;;4174890;28;20312;-62
2021/04/17 01:58:41;;;;;;;22.80;11.70;;;0.70;99.90;;;;;;4160922;28;20336;-63
2021/04/17 02:00:42;;;;;;;23.23;12.90;;;0.70;99.90;;;;;;4158636;28;20269;-61
2021/04/17 02:02:43;;;;;;;21.80;12.00;;;0.60;99.90;;;;;;4158239;28;20317;-62
2021/04/17 02:04:45;;;;;;;23.63;11.53;;;0.60;99.90;;;;;;4156720;28;20666;-65
2021/04/17 02:06:46;;;;;;;20.57;10.77;;;0.60;99.90;;;;;;4156877;28;20317;-62
2021/04/17 02:08:47;;;;;;;20.20;11.20;;;0.50;99.90;;;;;;4156702;28;20255;-61
2021/04/17 02:10:50;;;;;;;22.30;11.07;;;0.60;99.90;;;;;;4159854;28;20622;-62
2021/04/17 02:12:51;;;;;;;19.37;10.80;;;0.60;99.90;;;;;;4156899;28;20290;-61
2021/04/17 02:14:52;;;;;;;22.97;11.30;;;0.50;99.90;;;;;;4156998;28;20352;-61
2021/04/17 02:17:26;;;;;;;23.47;11.63;;;0.50;99.90;;;;;;4138567;28;20331;-62
2021/04/17 02:19:33;;;;;;;19.83;11.37;;;0.50;99.90;;;;;;4158226;28;20329;-62
2021/04/17 02:21:45;;;;;;;22.10;11.17;;;0.50;99.90;;;;;;4156751;28;20950;-62
2021/04/17 02:23:47;;;;;;;19.47;10.80;;;0.50;99.90;;;;;;4157873;28;20283;-63
2021/04/17 02:25:48;;;;;;;19.33;10.47;;;0.40;99.90;;;;;;4167856;28;20327;-62
2021/04/17 02:27:50;;;;;;;17.30;9.33;;;0.40;99.90;;;;;;4174312;28;20270;-66
2021/04/17 02:29:54;;;;;;;20.17;10.73;;;0.40;99.90;;;;;;4173635;28;20924;-61
2021/04/17 02:31:55;;;;;;;17.47;10.10;;;0.40;99.90;;;;;;4173630;28;20286;-62
2021/04/17 02:33:57;;;;;;;18.03;10.17;;;0.40;99.90;;;;;;4172741;28;20294;-63
2021/04/17 02:35:59;;;;;;;17.97;9.67;;;0.30;99.90;;;;;;4174616;28;20323;-62
2021/04/17 02:38:00;;;;;;;19.20;10.30;;;0.30;99.90;;;;;;4154733;28;20267;-64
2021/04/17 02:40:01;;;;;;;19.17;10.60;;;0.30;99.90;;;;;;4173918;28;20792;-62
2021/04/17 02:42:03;;;;;;;20.43;10.77;;;0.30;99.90;;;;;;4173119;28;20274;-64
2021/04/17 02:44:05;;;;;;;18.53;10.53;;;0.30;99.90;;;;;;4173535;28;20336;-62
2021/04/17 02:46:07;;;;;;;18.93;10.30;;;0.20;99.90;;;;;;4171892;28;20273;-65
2021/04/17 02:48:08;;;;;;;19.97;10.27;;;0.20;99.90;;;;;;4156280;28;20278;-63
2021/04/17 02:50:10;;;;;;;22.10;10.93;;;0.20;99.90;;;;;;4157622;28;20283;-62
2021/04/17 02:52:11;;;;;;;21.97;11.20;;;0.20;99.90;;;;;;4156099;28;20404;-63
2021/04/17 02:54:13;;;;;;;17.97;10.53;;;0.20;99.90;;;;;;4159035;28;20302;-62
2021/04/17 02:56:14;;;;;;;22.00;11.07;;;0.20;99.90;;;;;;4156165;28;20384;-64
2021/04/17 02:58:15;;;;;;;23.83;11.50;;;0.20;99.90;;;;;;4157336;28;20802;-61
2021/04/17 03:00:20;;;;;;;19.00;10.80;;;0.20;99.90;;;;;;4156586;28;20308;-62
2021/04/17 03:02:21;;;;;;;20.50;11.40;;;0.10;99.90;;;;;;4157359;28;20262;-62
2021/04/17 03:04:22;;;;;;;22.20;10.53;;;0.20;99.90;;;;;;4155696;28;20352;-64
2021/04/17 03:06:23;;;;;;;21.97;10.87;;;0.10;99.90;;;;;;4156913;28;20283;-60
2021/04/17 03:08:25;;;;;;;18.03;10.37;;;0.10;99.90;;;;;;4156521;28;20290;-61
2021/04/17 03:10:26;;;;;;;20.23;11.37;;;0.10;99.90;;;;;;4157491;28;20671;-60
2021/04/17 03:12:27;;;;;;;21.47;10.83;;;0.10;99.90;;;;;;4156657;28;20305;-61
2021/04/17 03:14:28;;;;;;;22.03;12.43;;;0.10;99.90;;;;;;4156756;28;20324;-61
2021/04/17 03:16:29;;;;;;;18.93;10.43;;;0.10;99.90;;;;;;4156745;28;20263;-62
2021/04/17 03:18:31;;;;;;;20.37;11.17;;;0.10;99.90;;;;;;4156143;28;20664;-61
2021/04/17 03:20:32;;;;;;;19.10;11.07;;;0.10;99.90;;;;;;4157682;28;20795;-63
2021/04/17 03:22:34;;;;;;;21.20;11.37;;;0.10;99.90;;;;;;4157047;28;20274;-62
2021/04/17 03:24:36;;;;;;;19.97;11.53;;;0.10;99.90;;;;;;4157850;28;20266;-62
2021/04/17 03:26:37;;;;;;;19.17;10.60;;;0.10;99.90;;;;;;4155182;28;20274;-62
2021/04/17 03:28:38;;;;;;;20.97;11.37;;;0.00;99.90;;;;;;4156862;28;20278;-62
2021/04/17 03:30:39;;;;;;;20.40;10.23;;;0.10;99.90;;;;;;4156056;28;20336;-63
2021/04/17 03:32:42;;;;;;;20.17;10.53;;;0.10;99.90;;;;;;4157386;28;20332;-66
2021/04/17 03:34:43;;;;;;;20.10;11.40;;;0.00;99.90;;;;;;4156086;28;20267;-61
2021/04/17 03:36:44;;;;;;;27.47;12.43;;;0.00;99.90;;;;;;4157325;28;20674;-62
2021/04/17 03:38:45;;;;;;;25.40;12.87;;;0.00;99.90;;;;;;4155749;28;20321;-62
2021/04/17 03:40:47;;;;;;;22.73;11.33;;;-0.10;99.90;;;;;;4163166;28;20266;-62
2021/04/17 03:42:49;;;;;;;21.67;11.70;;;-0.10;99.90;;;;;;4172692;28;20340;-64
2021/04/17 03:44:50;;;;;;;20.47;11.20;;;-0.20;99.90;;;;;;4173577;28;20808;-62
2021/04/17 03:46:51;;;;;;;19.80;10.83;;;-0.20;99.90;;;;;;4170858;28;20375;-60
2021/04/17 03:48:52;;;;;;;26.07;13.97;;;-0.20;99.90;;;;;;4172731;28;20324;-62
2021/04/17 03:50:53;;;;;;;24.27;12.43;;;-0.20;99.90;;;;;;4173289;28;20730;-62
2021/04/17 03:52:54;;;;;;;27.57;12.50;;;0.00;99.90;;;;;;4172397;28;20297;-62
2021/04/17 03:54:55;;;;;;;26.70;13.77;;;0.20;99.90;;;;;;4173290;28;20587;-61
2021/04/17 03:56:57;;;;;;;26.07;14.13;;;0.40;99.90;;;;;;4171856;28;20315;-61
2021/04/17 03:58:58;;;;;;;62.00;26.23;;;0.70;99.90;;;;;;4171608;28;20270;-61
2021/04/17 04:00:59;;;;;;;91.50;40.53;;;0.90;99.90;;;;;;4172466;28;20591;-57
2021/04/17 04:03:01;;;;;;;76.93;33.47;;;1.20;99.90;;;;;;4172829;28;20277;-62
2021/04/17 04:05:04;;;;;;;67.07;32.07;;;1.50;99.90;;;;;;4172323;28;20320;-65
2021/04/17 04:07:05;;;;;;;68.97;31.20;;;1.70;99.90;;;;;;4173013;28;20304;-61
2021/04/17 04:09:07;;;;;;;71.30;32.13;;;2.00;99.90;;;;;;4171956;28;20304;-63
2021/04/17 04:11:08;;;;;;;60.80;30.13;;;2.40;99.90;;;;;;4173209;28;20266;-62
2021/04/17 04:13:09;;;;;;;45.40;22.73;;;2.70;99.90;;;;;;4172223;28;20286;-61
2021/04/17 04:15:13;;;;;;;30.60;16.87;;;3.10;99.90;;;;;;4173253;28;20270;-62
2021/04/17 04:17:14;;;;;;;27.33;14.17;;;3.40;99.90;;;;;;4171742;28;20250;-65
2021/04/17 04:19:15;;;;;;;34.57;18.30;;;3.70;99.90;;;;;;4171906;28;20412;-64
2021/04/17 04:21:16;;;;;;;36.27;17.50;;;4.00;99.90;;;;;;4172486;28;20320;-62
2021/04/17 04:23:17;;;;;;;55.13;25.90;;;4.30;99.90;;;;;;4171819;28;20278;-61
2021/04/17 04:25:19;;;;;;;51.93;22.00;;;4.50;99.90;;;;;;4172136;28;20323;-61
2021/04/17 04:27:20;;;;;;;57.03;25.33;;;5.00;99.90;;;;;;4171151;28;21008;-62
2021/04/17 04:29:21;;;;;;;41.00;20.00;;;5.40;99.90;;;;;;4172818;28;20327;-61
2021/04/17 04:31:22;;;;;;;34.00;17.10;;;5.80;99.90;;;;;;4161908;28;20595;-61
2021/04/17 04:33:24;;;;;;;22.27;12.03;;;6.30;99.90;;;;;;4159150;28;20364;-61
2021/04/17 04:35:25;;;;;;;15.03;8.33;;;6.70;99.90;;;;;;4158349;28;20826;-61
2021/04/17 04:37:26;;;;;;;15.57;8.30;;;7.10;99.90;;;;;;4159568;28;20321;-58
2021/04/17 04:39:27;;;;;;;16.53;7.17;;;7.40;99.90;;;;;;4165587;28;20777;-62
2021/04/17 04:41:29;;;;;;;8.70;6.33;;;7.90;99.90;;;;;;4174939;28;20277;-61
2021/04/17 04:43:30;;;;;;;10.87;6.23;;;8.00;99.90;;;;;;4174196;28;20033;-62
2021/04/17 04:45:31;;;;;;;15.23;6.73;;;8.20;99.90;;;;;;4175212;28;20025;-67
2021/04/17 04:47:33;;;;;;;9.70;6.47;;;8.80;99.90;;;;;;4174684;28;20114;-63
2021/04/17 04:49:34;;;;;;;12.73;6.20;;;8.90;99.90;;;;;;4175222;28;20087;-59
2021/04/17 04:51:35;;;;;;;11.03;6.63;;;9.20;99.90;;;;;;4174831;28;20029;-62
2021/04/17 04:53:37;;;;;;;14.50;8.70;;;9.50;99.90;;;;;;4174771;28;20451;-62
2021/04/17 04:55:40;;;;;;;16.50;8.67;;;9.80;98.90;;;;;;4175431;28;20041;-59
2021/04/17 04:57:42;;;;;;;17.23;8.40;;;10.00;97.30;;;;;;4173047;28;20041;-63
2021/04/17 04:59:43;;;;;;;19.30;10.27;;;10.30;95.60;;;;;;4175521;28;20669;-64
2021/04/17 05:01:45;;;;;;;16.10;8.83;;;10.60;95.70;;;;;;4173888;28;20106;-61
2021/04/17 05:03:46;;;;;;;14.37;8.50;;;10.90;93.70;;;;;;4174884;28;20104;-64
2021/04/17 05:05:47;;;;;;;15.30;7.87;;;11.20;92.10;;;;;;4174087;28;20036;-61
2021/04/17 05:07:48;;;;;;;15.53;8.50;;;11.40;91.30;;;;;;4175012;28;20029;-62
2021/04/17 05:09:49;;;;;;;17.80;9.87;;;11.70;90.00;;;;;;4174080;28;20036;-60
2021/04/17 05:11:51;;;;;;;12.23;8.43;;;11.90;88.40;;;;;;4174735;28;20078;-62
2021/04/17 05:13:52;;;;;;;18.27;8.23;;;11.70;86.10;;;;;;4173870;28;20037;-64
2021/04/17 05:15:53;;;;;;;12.07;8.03;;;11.90;86.70;;;;;;4174744;28;20036;-65
2021/04/17 05:17:54;;;;;;;14.73;7.90;;;12.30;85.50;;;;;;4174087;28;20032;-61
2021/04/17 05:19:55;;;;;;;15.03;7.17;;;12.80;83.30;;;;;;4173684;28;20045;-67
2021/04/17 05:21:57;;;;;;;10.67;6.93;;;12.90;80.70;;;;;;4174005;28;20469;-67
2021/04/17 05:23:59;;;;;;;8.73;7.00;;;12.70;78.80;;;;;;4174156;28;20082;-64
2021/04/17 05:26:00;;;;;;;10.47;6.53;;;12.50;79.50;;;;;;4173647;28;20383;-66
2021/04/17 05:28:03;;;;;;;10.27;6.90;;;12.50;77.90;;;;;;4173049;28;20079;-65
2021/04/17 05:30:05;;;;;;;10.77;6.33;;;12.80;77.70;;;;;;4174742;28;20106;-66
2021/04/17 05:32:08;;;;;;;11.07;6.87;;;13.10;75.70;;;;;;4162467;28;20046;-61
2021/04/17 05:34:09;;;;;;;14.43;8.17;;;13.30;75.20;;;;;;4157707;28;20053;-64
2021/04/17 05:36:10;;;;;;;11.30;7.50;;;13.60;73.10;;;;;;4157277;28;20447;-63
2021/04/17 05:38:11;;;;;;;9.93;6.80;;;13.90;71.70;;;;;;4157065;28;20517;-64
2021/04/17 05:40:12;;;;;;;12.90;7.97;;;14.10;70.50;;;;;;4168996;28;20116;-66
2021/04/17 05:42:15;;;;;;;12.00;7.13;;;14.00;69.50;;;;;;4174692;28;20091;-63
2021/04/17 05:44:16;;;;;;;13.37;7.63;;;14.00;68.70;;;;;;4173605;28;20029;-64
2021/04/17 05:46:18;;;;;;;10.37;6.83;;;13.90;68.40;;;;;;4175021;28;20032;-63
2021/04/17 05:48:19;;;;;;;9.87;7.17;;;13.70;68.30;;;;;;4173452;28;20033;-66
2021/04/17 05:50:21;;;;;;;12.30;7.57;;;13.70;68.20;;;;;;4173798;28;20493;-66
2021/04/17 05:52:22;;;;;;;10.60;7.43;;;13.90;67.60;;;;;;4173627;28;20033;-67
2021/04/17 05:54:23;;;;;;;9.60;6.87;;;14.00;67.10;;;;;;4174658;28;20107;-66
2021/04/17 05:56:25;;;;;;;12.43;7.23;;;13.90;66.10;;;;;;4173298;28;20067;-63
2021/04/17 05:58:26;;;;;;;13.83;7.40;;;13.60;66.20;;;;;;4173659;28;20022;-67
2021/04/17 06:00:27;;;;;;;19.20;8.20;;;13.40;66.80;;;;;;4173922;28;20358;-65
2021/04/17 06:02:28;;;;;;;15.63;8.10;;;13.30;67.20;;;;;;4172879;28;20118;-62
2021/04/17 06:04:29;;;;;;;16.90;8.40;;;13.60;67.20;;;;;;4174518;28;20075;-67
2021/04/17 06:06:31;;;;;;;11.73;7.87;;;14.00;67.00;;;;;;4157582;28;20661;-62
2021/04/17 06:08:32;;;;;;;15.63;7.53;;;14.00;65.50;;;;;;4157958;28;20029;-64
2021/04/17 06:10:33;;;;;;;13.07;7.83;;;14.10;65.40;;;;;;4161083;28;20045;-60
2021/04/17 06:12:34;;;;;;;11.07;7.80;;;14.10;65.20;;;;;;4166770;28;20030;-60
2021/04/17 06:14:36;;;;;;;10.07;8.00;;;13.90;65.10;;;;;;4139593;28;20049;-60
2021/04/17 06:16:37;;;;;;;13.20;8.40;;;14.10;65.30;;;;;;4167603;28;20041;-61
2021/04/17 06:18:38;;;;;;;9.40;7.23;;;14.20;64.40;;;;;;4172687;28;20481;-63
2021/04/17 06:20:41;;;;;;;11.90;6.97;;;14.40;63.80;;;;;;4174064;28;20078;-63
2021/04/17 06:22:42;;;;;;;10.33;7.40;;;13.90;63.70;;;;;;4172982;28;20029;-62
2021/04/17 06:24:43;;;;;;;13.03;7.40;;;14.00;64.40;;;;;;4163166;28;20033;-62
2021/04/17 06:26:44;;;;;;;12.03;7.93;;;13.90;64.20;;;;;;4171583;28;20029;-63
2021/04/17 06:28:45;;;;;;;8.67;7.13;;;14.00;64.20;;;;;;4172569;28;20052;-63
2021/04/17 06:30:47;;;;;;;12.63;7.10;;;13.40;64.60;;;;;;4173306;28;20044;-65
2021/04/17 06:32:49;;;;;;;12.53;8.00;;;13.00;65.70;;;;;;4171935;28;20040;-66
2021/04/17 06:34:50;;;;;;;11.07;7.33;;;13.00;66.20;;;;;;4155091;28;20049;-64
2021/04/17 06:36:51;;;;;;;12.37;8.77;;;12.40;66.60;;;;;;4171571;28;20083;-67
2021/04/17 06:38:53;;;;;;;13.57;8.57;;;12.20;67.90;;;;;;4172910;28;20398;-64
2021/04/17 06:40:54;;;;;;;18.03;10.27;;;11.80;68.70;;;;;;4172100;28;20280;-62
2021/04/17 06:42:58;;;;;;;15.30;9.30;;;11.30;69.40;;;;;;4172476;28;20048;-63
2021/04/17 06:45:01;;;;;;;16.80;9.80;;;11.00;70.50;;;;;;4171600;28;20029;-65
2021/04/17 06:47:02;;;;;;;17.90;11.77;;;11.10;71.30;;;;;;4173186;28;20362;-62
2021/04/17 06:49:07;;;;;;;23.17;15.37;;;11.10;71.70;;;;;;4171533;28;20040;-64
2021/04/17 06:51:18;;;;;;;18.17;12.37;;;11.40;72.60;;;;;;4172342;28;20187;-62
2021/04/17 06:53:21;;;;;;;18.60;13.23;;;11.70;70.90;;;;;;4158018;28;20037;-62
2021/04/17 06:55:22;;;;;;;17.53;12.53;;;11.20;71.30;;;;;;4173639;28;20377;-59
2021/04/17 06:57:23;;;;;;;17.37;12.33;;;11.40;71.80;;;;;;4172783;28;20087;-61
2021/04/17 06:59:25;;;;;;;17.37;10.83;;;11.50;71.90;;;;;;4173415;28;20033;-62
2021/04/17 07:01:29;;;;;;;17.33;11.47;;;11.40;71.90;;;;;;4171232;28;20056;-62
2021/04/17 07:03:32;;;;;;;12.03;8.97;;;11.20;71.60;;;;;;4172437;28;20055;-66
2021/04/17 07:05:33;;;;;;;13.67;9.27;;;11.20;71.50;;;;;;4172612;28;20025;-65
2021/04/17 07:07:34;;;;;;;13.87;9.37;;;10.90;72.20;;;;;;4171941;28;20045;-61
2021/04/17 07:09:36;;;;;;;14.67;9.30;;;10.40;73.80;;;;;;4172593;28;20049;-62
2021/04/17 07:11:38;;;;;;;12.97;8.20;;;10.00;75.60;;;;;;4172456;28;20041;-61
2021/04/17 07:14:06;;;;;;;16.27;8.70;;;9.60;77.50;;;;;;4172937;28;20033;-61
2021/04/17 07:16:09;;;;;;;16.37;10.07;;;9.20;80.10;;;;;;4172032;28;20091;-61
2021/04/17 07:18:25;;;;;;;18.27;10.80;;;9.00;81.60;;;;;;4171668;28;20047;-63
2021/04/17 07:20:28;;;;;;;16.00;10.73;;;9.10;82.60;;;;;;4170518;28;21099;-60
2021/04/17 07:22:37;;;;;;;16.33;10.60;;;9.20;83.30;;;;;;4171577;28;20033;-60
2021/04/17 07:24:39;;;;;;;13.75;9.55;;;9.30;82.80;;;;;;4158635;28;20039;-65
2021/04/17 07:26:42;;;;;;;16.87;9.17;;;9.40;82.90;;;;;;4156526;28;20038;-64
2021/04/17 07:28:55;;;;;;;14.40;9.07;;;9.40;83.30;;;;;;4155465;28;20058;-62
2021/04/17 07:30:56;;;;;;;12.83;7.93;;;9.70;83.00;;;;;;4156793;28;20108;-64
2021/04/17 07:33:13;;;;;;;15.33;9.07;;;9.50;83.20;;;;;;4156311;28;20091;-62
2021/04/17 07:35:20;;;;;;;10.80;7.63;;;9.70;83.30;;;;;;4171437;28;20091;-62
2021/04/17 07:37:21;;;;;;;9.70;6.90;;;9.50;82.60;;;;;;4153074;28;20041;-64
2021/04/17 07:39:34;;;;;;;10.30;6.57;;;9.40;83.00;;;;;;4168528;28;20037;-62
2021/04/17 07:41:38;;;;;;;8.10;5.97;;;9.60;82.30;;;;;;4154127;28;20084;-61
2021/04/17 07:43:55;;;;;;;8.67;6.27;;;9.60;80.50;;;;;;4157436;28;20056;-61
2021/04/17 07:46:00;;;;;;;10.00;5.97;;;9.80;79.30;;;;;;4155090;28;20041;-61
2021/04/17 07:48:25;;;;;;;8.47;6.20;;;9.90;78.60;;;;;;4155950;28;20037;-60
2021/04/17 07:50:33;;;;;;;10.40;6.20;;;10.10;79.40;;;;;;4159554;28;20166;-61
2021/04/17 07:52:35;;;;;;;11.27;5.97;;;10.30;78.60;;;;;;4172881;28;20469;-64
2021/04/17 07:54:39;;;;;;;8.60;6.80;;;10.20;77.60;;;;;;4171810;28;20139;-64
2021/04/17 07:56:40;;;;;;;7.53;5.50;;;10.10;77.70;;;;;;4172491;28;20489;-65
2021/04/17 07:58:49;;;;;;;9.10;5.83;;;10.10;77.40;;;;;;4171605;28;20087;-61
2021/04/17 08:00:51;;;;;;;9.27;6.70;;;9.70;77.50;;;;;;4172254;28;20095;-63
2021/04/17 08:02:53;;;;;;;7.40;5.33;;;9.50;79.00;;;;;;4170251;28;20555;-61
2021/04/17 08:04:55;;;;;;;10.70;6.30;;;9.50;80.30;;;;;;4171862;28;20033;-61
2021/04/17 08:06:59;;;;;;;8.13;6.03;;;9.80;80.80;;;;;;4173892;28;20553;-64
2021/04/17 08:09:00;;;;;;;8.13;6.00;;;9.90;80.40;;;;;;4175020;28;20098;-65
2021/04/17 08:11:01;;;;;;;8.53;6.43;;;10.00;80.50;;;;;;4174145;28;20576;-65
2021/04/17 08:13:07;;;;;;;8.50;6.20;;;9.80;80.00;;;;;;4175346;28;20098;-64
2021/04/17 08:15:19;;;;;;;8.50;6.37;;;9.70;80.40;;;;;;4155207;28;20131;-65
2021/04/17 08:17:21;;;;;;;7.60;5.70;;;9.70;79.80;;;;;;4175359;28;20485;-63
2021/04/17 08:19:23;;;;;;;10.00;6.17;;;9.70;80.20;;;;;;4174687;28;20067;-64
2021/04/17 08:21:25;;;;;;;6.73;5.57;;;9.60;79.90;;;;;;4174513;28;20501;-65
2021/04/17 08:23:27;;;;;;;8.30;5.73;;;9.70;80.00;;;;;;4175518;28;20416;-66
2021/04/17 08:25:29;;;;;;;8.70;6.20;;;10.10;80.20;;;;;;4175030;28;20094;-63
2021/04/17 08:27:31;;;;;;;7.43;5.43;;;10.20;79.00;;;;;;4175055;28;20040;-61
2021/04/17 08:29:49;;;;;;;9.07;5.53;;;10.20;78.60;;;;;;4173984;28;20044;-62
2021/04/17 08:31:50;;;;;;;7.53;5.87;;;10.10;79.00;;;;;;4174935;28;20083;-61
2021/04/17 08:34:14;;;;;;;7.03;5.07;;;10.10;78.60;;;;;;4173818;28;20122;-60
2021/04/17 08:36:31;;;;;;;8.97;6.20;;;10.40;79.10;;;;;;4174713;28;20036;-60
2021/04/17 08:38:36;;;;;;;8.87;6.10;;;10.40;77.90;;;;;;4166043;28;20033;-61
2021/04/17 08:40:40;;;;;;;10.17;5.90;;;10.50;77.60;;;;;;4157337;28;20111;-61
2021/04/17 08:42:48;;;;;;;8.93;5.97;;;10.30;78.60;;;;;;4160862;28;20139;-61
2021/04/17 08:44:49;;;;;;;7.00;5.13;;;10.30;78.20;;;;;;4156863;28;20029;-60
2021/04/17 08:46:50;;;;;;;10.67;5.90;;;10.30;78.00;;;;;;4173373;28;20708;-61
2021/04/17 08:48:51;;;;;;;7.63;5.77;;;10.30;78.40;;;;;;4174817;28;20059;-59
2021/04/17 08:50:52;;;;;;;7.30;5.63;;;10.30;78.70;;;;;;4174227;28;20551;-64
2021/04/17 08:53:01;;;;;;;9.17;6.10;;;10.20;78.40;;;;;;4175206;28;20696;-61
2021/04/17 08:55:02;;;;;;;6.80;4.97;;;10.00;79.20;;;;;;4173688;28;20052;-62
2021/04/17 08:57:14;;;;;;;11.07;6.10;;;9.80;79.90;;;;;;4175636;28;20037;-61
2021/04/17 08:59:42;;;;;;;7.47;5.50;;;9.90;79.80;;;;;;4173091;28;20099;-61
2021/04/17 09:01:44;;;;;;;8.13;6.00;;;10.20;79.80;;;;;;4170564;28;20103;-63
2021/04/17 09:03:47;;;;;;;8.40;5.93;;;10.20;79.80;;;;;;4173220;28;20119;-61
2021/04/17 09:05:49;;;;;;;6.57;5.17;;;10.10;79.60;;;;;;4174111;28;20033;-59
2021/04/17 09:08:10;;;;;;;10.20;5.07;;;10.00;79.70;;;;;;4173987;28;20025;-61
2021/04/17 09:10:24;;;;;;;7.73;4.60;;;9.90;79.40;;;;;;4174977;28;20025;-60
2021/04/17 09:12:28;;;;;;;8.33;4.60;;;9.80;79.50;;;;;;4173491;28;20036;-61
2021/04/17 09:14:30;;;;;;;6.60;4.73;;;9.80;79.70;;;;;;4174586;28;20037;-61
2021/04/17 09:16:40;;;;;;;6.63;4.77;;;9.80;79.50;;;;;;4172927;28;20045;-61
2021/04/17 09:18:42;;;;;;;10.75;5.55;;;9.70;80.00;;;;;;4174069;28;20500;-60
2021/04/17 09:20:43;;;;;;;13.73;7.27;;;9.80;80.10;;;;;;4172602;28;20440;-60
2021/04/17 09:22:46;;;;;;;7.47;5.97;;;9.80;79.90;;;;;;4174636;28;20045;-63
2021/04/17 09:24:48;;;;;;;7.93;5.63;;;9.70;80.30;;;;;;4173532;28;20378;-66
2021/04/17 09:26:49;;;;;;;8.30;5.73;;;9.80;80.40;;;;;;4174163;28;20041;-62
2021/04/17 09:28:50;;;;;;;7.87;5.40;;;9.80;81.00;;;;;;4173314;28;20509;-64
2021/04/17 09:30:52;;;;;;;7.90;5.57;;;9.80;80.90;;;;;;4174129;28;20045;-66
2021/04/17 09:32:54;;;;;;;8.13;5.50;;;9.80;80.20;;;;;;4154964;28;20057;-63
2021/04/17 09:34:56;;;;;;;7.37;5.07;;;9.80;79.50;;;;;;4173811;28;20041;-62
2021/04/17 09:37:08;;;;;;;7.47;5.10;;;9.90;79.90;;;;;;4174296;28;20052;-68
2021/04/17 09:39:31;;;;;;;7.90;5.90;;;10.20;79.70;;;;;;4174287;28;20021;-64
2021/04/17 09:41:46;;;;;;;6.50;4.80;;;10.40;79.30;;;;;;4173670;28;20029;-62
2021/04/17 09:43:55;;;;;;;6.30;4.43;;;10.50;76.10;;;;;;4173467;28;20075;-61
2021/04/17 09:46:02;;;;;;;5.30;3.90;;;10.20;76.70;;;;;;4173690;28;20037;-61
2021/04/17 09:48:06;;;;;;;5.50;4.30;;;10.10;77.20;;;;;;4173452;28;20037;-61
2021/04/17 09:50:20;;;;;;;6.27;4.87;;;10.10;75.50;;;;;;4173519;28;20094;-62
2021/04/17 09:52:24;;;;;;;6.47;4.57;;;10.10;76.90;;;;;;4174382;28;20040;-62
2021/04/17 09:54:27;;;;;;;5.40;4.30;;;10.00;77.00;;;;;;4173241;28;20045;-63
2021/04/17 09:56:38;;;;;;;7.37;5.20;;;10.00;76.70;;;;;;4173977;28;20028;-61
2021/04/17 09:58:44;;;;;;;7.30;5.27;;;10.00;77.80;;;;;;4173892;28;20020;-61
2021/04/17 10:00:46;;;;;;;7.13;5.00;;;10.00;78.60;;;;;;4173664;28;20090;-61
2021/04/17 10:02:48;;;;;;;6.33;4.57;;;10.10;78.40;;;;;;4155433;28;20041;-62
2021/04/17 10:04:59;;;;;;;6.23;4.47;;;10.10;77.70;;;;;;4171998;28;20281;-60
2021/04/17 10:07:00;;;;;;;5.63;3.93;;;9.90;76.30;;;;;;4173546;28;20025;-62
2021/04/17 10:09:07;;;;;;;6.20;4.93;;;9.90;76.90;;;;;;4172814;28;20079;-62
2021/04/17 10:11:19;;;;;;;7.10;4.13;;;10.00;77.30;;;;;;4173746;28;20037;-62
2021/04/17 10:13:39;;;;;;;7.13;4.80;;;10.20;77.30;;;;;;4172752;28;20476;-61
2021/04/17 10:15:45;;;;;;;8.45;5.22;;;10.30;77.50;;;;;;4173212;28;20103;-62
2021/04/17 10:17:51;;;;;;;7.17;5.20;;;10.30;77.60;;;;;;4171459;28;20420;-62
2021/04/17 10:19:52;;;;;;;8.00;5.83;;;10.30;77.90;;;;;;4173302;28;20083;-61
2021/04/17 10:21:59;;;;;;;9.53;5.80;;;10.30;78.10;;;;;;4172688;28;20094;-62
2021/04/17 10:24:29;;;;;;;8.17;5.90;;;10.30;78.50;;;;;;4173948;28;20020;-62
2021/04/17 10:26:30;;;;;;;8.50;5.10;;;10.30;78.30;;;;;;4155199;28;20033;-63
2021/04/17 10:28:32;;;;;;;10.17;5.90;;;10.30;78.00;;;;;;4172076;28;20278;-62
2021/04/17 10:30:33;;;;;;;7.40;4.90;;;10.30;78.70;;;;;;4154183;28;20045;-63
2021/04/17 10:32:38;;;;;;;5.83;4.70;;;10.30;78.70;;;;;;4172909;28;20636;-62
2021/04/17 10:34:42;;;;;;;8.87;5.23;;;10.30;78.40;;;;;;4172567;28;20044;-61
2021/04/17 10:36:43;;;;;;;5.93;4.90;;;10.20;78.50;;;;;;4173507;28;20029;-62
2021/04/17 10:38:44;;;;;;;6.13;4.70;;;9.90;78.00;;;;;;4154790;28;20084;-65